sensor_id;sensor_type;location;lat;lon;timestamp;pressure;altitude;pressure_sealevel;temperature
22322;BMP180;11328;53.928;18.522;2023-07-31T00:00:21;99641.00;;;21.00
22322;BMP180;11328;53.928;18.522;2023-07-31T00:02:48;99649.00;;;21.00
22322;BMP180;11328;53.928;18.522;2023-07-31T00:05:15;99642.00;;;21.00
22322;BMP180;11328;53.928;18.522;2023-07-31T00:07:42;99649.00;;;20.90
22322;BMP180;11328;53.928;18.522;2023-07-31T00:10:10;99639.00;;;20.80
22322;BMP180;11328;53.928;18.522;2023-07-31T00:12:42;99652.00;;;20.70
22322;BMP180;11328;53.928;18.522;2023-07-31T00:15:10;99643.00;;;20.70
22322;BMP180;11328;53.928;18.522;2023-07-31T00:17:37;99636.00;;;20.50
22322;BMP180;11328;53.928;18.522;2023-07-31T00:20:05;99632.00;;;20.40
22322;BMP180;11328;53.928;18.522;2023-07-31T00:22:32;99630.00;;;20.40
22322;BMP180;11328;53.928;18.522;2023-07-31T00:24:58;99624.00;;;20.50
22322;BMP180;11328;53.928;18.522;2023-07-31T00:27:26;99625.00;;;20.50
22322;BMP180;11328;53.928;18.522;2023-07-31T00:29:53;99614.00;;;20.40
22322;BMP180;11328;53.928;18.522;2023-07-31T00:32:20;99618.00;;;20.40
22322;BMP180;11328;53.928;18.522;2023-07-31T00:34:47;99621.00;;;20.40
22322;BMP180;11328;53.928;18.522;2023-07-31T00:37:14;99617.00;;;20.40
22322;BMP180;11328;53.928;18.522;2023-07-31T00:39:42;99615.00;;;20.40
22322;BMP180;11328;53.928;18.522;2023-07-31T00:42:09;99612.00;;;20.40
22322;BMP180;11328;53.928;18.522;2023-07-31T00:44:36;99608.00;;;20.50
22322;BMP180;11328;53.928;18.522;2023-07-31T00:47:03;99601.00;;;20.50
22322;BMP180;11328;53.928;18.522;2023-07-31T00:49:30;99601.00;;;20.50
22322;BMP180;11328;53.928;18.522;2023-07-31T00:51:57;99605.00;;;20.40
22322;BMP180;11328;53.928;18.522;2023-07-31T00:54:25;99578.00;;;20.30
22322;BMP180;11328;53.928;18.522;2023-07-31T00:56:54;99591.00;;;20.30
22322;BMP180;11328;53.928;18.522;2023-07-31T00:59:21;99597.00;;;20.40
22322;BMP180;11328;53.928;18.522;2023-07-31T01:01:48;99600.00;;;20.30
22322;BMP180;11328;53.928;18.522;2023-07-31T01:04:18;99605.00;;;20.20
22322;BMP180;11328;53.928;18.522;2023-07-31T01:07:03;99591.00;;;20.20
22322;BMP180;11328;53.928;18.522;2023-07-31T01:09:49;99592.00;;;20.30
22322;BMP180;11328;53.928;18.522;2023-07-31T01:12:21;99605.00;;;20.20
22322;BMP180;11328;53.928;18.522;2023-07-31T01:15:09;99599.00;;;20.00
22322;BMP180;11328;53.928;18.522;2023-07-31T01:17:38;99599.00;;;20.10
22322;BMP180;11328;53.928;18.522;2023-07-31T01:20:22;99602.00;;;20.00
22322;BMP180;11328;53.928;18.522;2023-07-31T01:23:31;99596.00;;;19.90
22322;BMP180;11328;53.928;18.522;2023-07-31T01:26:23;99599.00;;;19.80
22322;BMP180;11328;53.928;18.522;2023-07-31T01:29:06;99594.00;;;19.80
22322;BMP180;11328;53.928;18.522;2023-07-31T01:31:36;99602.00;;;19.70
22322;BMP180;11328;53.928;18.522;2023-07-31T01:34:05;99580.00;;;19.70
22322;BMP180;11328;53.928;18.522;2023-07-31T01:36:32;99603.00;;;19.60
22322;BMP180;11328;53.928;18.522;2023-07-31T01:39:01;99611.00;;;19.60
22322;BMP180;11328;53.928;18.522;2023-07-31T01:41:28;99609.00;;;19.50
22322;BMP180;11328;53.928;18.522;2023-07-31T01:43:55;99605.00;;;19.40
22322;BMP180;11328;53.928;18.522;2023-07-31T01:46:22;99613.00;;;19.20
22322;BMP180;11328;53.928;18.522;2023-07-31T01:48:49;99607.00;;;19.10
22322;BMP180;11328;53.928;18.522;2023-07-31T01:51:16;99612.00;;;19.10
22322;BMP180;11328;53.928;18.522;2023-07-31T01:53:43;99616.00;;;19.10
22322;BMP180;11328;53.928;18.522;2023-07-31T01:56:10;99621.00;;;19.10
22322;BMP180;11328;53.928;18.522;2023-07-31T01:58:37;99609.00;;;18.90
22322;BMP180;11328;53.928;18.522;2023-07-31T02:01:04;99612.00;;;18.90
22322;BMP180;11328;53.928;18.522;2023-07-31T02:03:31;99612.00;;;18.80
22322;BMP180;11328;53.928;18.522;2023-07-31T02:05:58;99617.00;;;18.70
22322;BMP180;11328;53.928;18.522;2023-07-31T02:08:25;99611.00;;;18.60
22322;BMP180;11328;53.928;18.522;2023-07-31T02:10:53;99617.00;;;18.60
22322;BMP180;11328;53.928;18.522;2023-07-31T02:13:20;99622.00;;;18.50
22322;BMP180;11328;53.928;18.522;2023-07-31T02:15:48;99627.00;;;18.50
22322;BMP180;11328;53.928;18.522;2023-07-31T02:18:15;99629.00;;;18.40
22322;BMP180;11328;53.928;18.522;2023-07-31T02:20:42;99623.00;;;18.30
22322;BMP180;11328;53.928;18.522;2023-07-31T02:23:09;99634.00;;;18.20
22322;BMP180;11328;53.928;18.522;2023-07-31T02:25:35;99624.00;;;18.10
22322;BMP180;11328;53.928;18.522;2023-07-31T02:28:03;99633.00;;;18.00
22322;BMP180;11328;53.928;18.522;2023-07-31T02:30:29;99630.00;;;17.90
22322;BMP180;11328;53.928;18.522;2023-07-31T02:32:56;99631.00;;;17.90
22322;BMP180;11328;53.928;18.522;2023-07-31T02:35:23;99635.00;;;17.90
22322;BMP180;11328;53.928;18.522;2023-07-31T02:37:50;99639.00;;;17.80
22322;BMP180;11328;53.928;18.522;2023-07-31T02:40:17;99646.00;;;17.80
22322;BMP180;11328;53.928;18.522;2023-07-31T02:42:44;99642.00;;;17.70
22322;BMP180;11328;53.928;18.522;2023-07-31T02:45:11;99634.00;;;17.80
22322;BMP180;11328;53.928;18.522;2023-07-31T02:47:38;99636.00;;;17.70
22322;BMP180;11328;53.928;18.522;2023-07-31T02:50:06;99638.00;;;17.60
22322;BMP180;11328;53.928;18.522;2023-07-31T02:52:33;99641.00;;;17.60
22322;BMP180;11328;53.928;18.522;2023-07-31T02:55:00;99641.00;;;17.50
22322;BMP180;11328;53.928;18.522;2023-07-31T02:57:26;99648.00;;;17.60
22322;BMP180;11328;53.928;18.522;2023-07-31T02:59:53;99644.00;;;17.50
22322;BMP180;11328;53.928;18.522;2023-07-31T03:02:20;99645.00;;;17.50
22322;BMP180;11328;53.928;18.522;2023-07-31T03:04:47;99640.00;;;17.50
22322;BMP180;11328;53.928;18.522;2023-07-31T03:07:14;99644.00;;;17.50
22322;BMP180;11328;53.928;18.522;2023-07-31T03:09:41;99645.00;;;17.50
22322;BMP180;11328;53.928;18.522;2023-07-31T03:12:08;99638.00;;;17.50
22322;BMP180;11328;53.928;18.522;2023-07-31T03:14:35;99645.00;;;17.40
22322;BMP180;11328;53.928;18.522;2023-07-31T03:17:03;99661.00;;;17.50
22322;BMP180;11328;53.928;18.522;2023-07-31T03:19:33;99657.00;;;17.50
22322;BMP180;11328;53.928;18.522;2023-07-31T03:22:00;99662.00;;;17.40
22322;BMP180;11328;53.928;18.522;2023-07-31T03:24:28;99662.00;;;17.40
22322;BMP180;11328;53.928;18.522;2023-07-31T03:26:56;99664.00;;;17.50
22322;BMP180;11328;53.928;18.522;2023-07-31T03:29:23;99660.00;;;17.50
22322;BMP180;11328;53.928;18.522;2023-07-31T03:31:50;99669.00;;;17.50
22322;BMP180;11328;53.928;18.522;2023-07-31T03:34:17;99668.00;;;17.60
22322;BMP180;11328;53.928;18.522;2023-07-31T03:36:44;99659.00;;;17.60
22322;BMP180;11328;53.928;18.522;2023-07-31T03:39:11;99660.00;;;17.70
22322;BMP180;11328;53.928;18.522;2023-07-31T03:41:38;99634.00;;;17.80
22322;BMP180;11328;53.928;18.522;2023-07-31T03:44:05;99664.00;;;17.70
22322;BMP180;11328;53.928;18.522;2023-07-31T03:46:32;99666.00;;;17.60
22322;BMP180;11328;53.928;18.522;2023-07-31T03:49:00;99668.00;;;17.60
22322;BMP180;11328;53.928;18.522;2023-07-31T03:51:27;99660.00;;;17.60
22322;BMP180;11328;53.928;18.522;2023-07-31T03:53:54;99667.00;;;17.70
22322;BMP180;11328;53.928;18.522;2023-07-31T03:56:21;99666.00;;;17.90
22322;BMP180;11328;53.928;18.522;2023-07-31T03:58:49;99669.00;;;17.80
22322;BMP180;11328;53.928;18.522;2023-07-31T04:01:16;99668.00;;;17.80
22322;BMP180;11328;53.928;18.522;2023-07-31T04:03:43;99671.00;;;17.90
22322;BMP180;11328;53.928;18.522;2023-07-31T04:06:10;99666.00;;;17.90
22322;BMP180;11328;53.928;18.522;2023-07-31T04:08:37;99662.00;;;18.00
22322;BMP180;11328;53.928;18.522;2023-07-31T04:11:04;99633.00;;;18.00
22322;BMP180;11328;53.928;18.522;2023-07-31T04:13:31;99686.00;;;17.80
22322;BMP180;11328;53.928;18.522;2023-07-31T04:15:58;99661.00;;;18.00
22322;BMP180;11328;53.928;18.522;2023-07-31T04:18:25;99658.00;;;17.90
22322;BMP180;11328;53.928;18.522;2023-07-31T04:20:52;99655.00;;;17.80
22322;BMP180;11328;53.928;18.522;2023-07-31T04:23:19;99663.00;;;17.90
22322;BMP180;11328;53.928;18.522;2023-07-31T04:25:46;99662.00;;;18.00
22322;BMP180;11328;53.928;18.522;2023-07-31T04:28:13;99673.00;;;18.10
22322;BMP180;11328;53.928;18.522;2023-07-31T04:30:41;99669.00;;;18.20
22322;BMP180;11328;53.928;18.522;2023-07-31T04:33:08;99644.00;;;18.20
22322;BMP180;11328;53.928;18.522;2023-07-31T04:35:35;99668.00;;;18.20
22322;BMP180;11328;53.928;18.522;2023-07-31T04:38:02;99670.00;;;18.40
22322;BMP180;11328;53.928;18.522;2023-07-31T04:40:29;99678.00;;;18.30
22322;BMP180;11328;53.928;18.522;2023-07-31T04:42:55;99673.00;;;18.10
22322;BMP180;11328;53.928;18.522;2023-07-31T04:45:22;99669.00;;;18.20
22322;BMP180;11328;53.928;18.522;2023-07-31T04:47:49;99680.00;;;18.30
22322;BMP180;11328;53.928;18.522;2023-07-31T04:50:16;99674.00;;;18.30
22322;BMP180;11328;53.928;18.522;2023-07-31T04:52:43;99667.00;;;18.20
22322;BMP180;11328;53.928;18.522;2023-07-31T04:55:10;99677.00;;;18.20
22322;BMP180;11328;53.928;18.522;2023-07-31T04:57:37;99671.00;;;18.40
22322;BMP180;11328;53.928;18.522;2023-07-31T05:00:05;99665.00;;;18.40
22322;BMP180;11328;53.928;18.522;2023-07-31T05:02:32;99681.00;;;18.30
22322;BMP180;11328;53.928;18.522;2023-07-31T05:04:59;99678.00;;;18.40
22322;BMP180;11328;53.928;18.522;2023-07-31T05:07:26;99673.00;;;18.50
22322;BMP180;11328;53.928;18.522;2023-07-31T05:09:53;99676.00;;;18.70
22322;BMP180;11328;53.928;18.522;2023-07-31T05:12:24;99683.00;;;18.60
22322;BMP180;11328;53.928;18.522;2023-07-31T05:14:51;99677.00;;;18.60
22322;BMP180;11328;53.928;18.522;2023-07-31T05:17:18;99665.00;;;18.50
22322;BMP180;11328;53.928;18.522;2023-07-31T05:19:45;99686.00;;;18.60
22322;BMP180;11328;53.928;18.522;2023-07-31T05:22:12;99687.00;;;18.70
22322;BMP180;11328;53.928;18.522;2023-07-31T05:24:39;99689.00;;;18.70
22322;BMP180;11328;53.928;18.522;2023-07-31T05:27:06;99677.00;;;18.70
22322;BMP180;11328;53.928;18.522;2023-07-31T05:29:33;99694.00;;;18.80
22322;BMP180;11328;53.928;18.522;2023-07-31T05:32:00;99685.00;;;18.80
22322;BMP180;11328;53.928;18.522;2023-07-31T05:34:27;99689.00;;;18.90
22322;BMP180;11328;53.928;18.522;2023-07-31T05:36:54;99688.00;;;18.90
22322;BMP180;11328;53.928;18.522;2023-07-31T05:39:21;99682.00;;;19.10
22322;BMP180;11328;53.928;18.522;2023-07-31T05:41:48;99690.00;;;19.00
22322;BMP180;11328;53.928;18.522;2023-07-31T05:44:15;99691.00;;;18.90
22322;BMP180;11328;53.928;18.522;2023-07-31T05:46:42;99688.00;;;18.90
22322;BMP180;11328;53.928;18.522;2023-07-31T05:49:09;99698.00;;;19.20
22322;BMP180;11328;53.928;18.522;2023-07-31T05:51:36;99695.00;;;19.50
22322;BMP180;11328;53.928;18.522;2023-07-31T05:54:03;99697.00;;;19.70
22322;BMP180;11328;53.928;18.522;2023-07-31T05:56:30;99702.00;;;19.90
22322;BMP180;11328;53.928;18.522;2023-07-31T05:58:58;99696.00;;;20.20
22322;BMP180;11328;53.928;18.522;2023-07-31T06:01:25;99701.00;;;20.10
22322;BMP180;11328;53.928;18.522;2023-07-31T06:03:52;99696.00;;;20.00
22322;BMP180;11328;53.928;18.522;2023-07-31T06:06:19;99692.00;;;20.20
22322;BMP180;11328;53.928;18.522;2023-07-31T06:08:46;99694.00;;;20.40
22322;BMP180;11328;53.928;18.522;2023-07-31T06:11:13;99694.00;;;20.70
22322;BMP180;11328;53.928;18.522;2023-07-31T06:13:40;99699.00;;;20.40
22322;BMP180;11328;53.928;18.522;2023-07-31T06:16:09;99695.00;;;20.30
22322;BMP180;11328;53.928;18.522;2023-07-31T06:18:36;99705.00;;;20.40
22322;BMP180;11328;53.928;18.522;2023-07-31T06:21:03;99703.00;;;20.30
22322;BMP180;11328;53.928;18.522;2023-07-31T06:23:31;99713.00;;;20.40
22322;BMP180;11328;53.928;18.522;2023-07-31T06:25:58;99709.00;;;20.40
22322;BMP180;11328;53.928;18.522;2023-07-31T06:28:32;99714.00;;;20.40
22322;BMP180;11328;53.928;18.522;2023-07-31T06:30:59;99717.00;;;20.50
22322;BMP180;11328;53.928;18.522;2023-07-31T06:33:27;99699.00;;;20.70
22322;BMP180;11328;53.928;18.522;2023-07-31T06:35:54;99707.00;;;20.90
22322;BMP180;11328;53.928;18.522;2023-07-31T06:38:26;99713.00;;;20.90
22322;BMP180;11328;53.928;18.522;2023-07-31T06:40:53;99708.00;;;20.80
22322;BMP180;11328;53.928;18.522;2023-07-31T06:43:21;99696.00;;;20.90
22322;BMP180;11328;53.928;18.522;2023-07-31T06:45:48;99717.00;;;20.90
22322;BMP180;11328;53.928;18.522;2023-07-31T06:48:18;99725.00;;;21.10
22322;BMP180;11328;53.928;18.522;2023-07-31T06:50:45;99727.00;;;21.30
22322;BMP180;11328;53.928;18.522;2023-07-31T06:53:12;99720.00;;;21.20
22322;BMP180;11328;53.928;18.522;2023-07-31T06:55:39;99713.00;;;21.40
22322;BMP180;11328;53.928;18.522;2023-07-31T06:58:06;99699.00;;;22.00
22322;BMP180;11328;53.928;18.522;2023-07-31T07:00:33;99721.00;;;22.20
22322;BMP180;11328;53.928;18.522;2023-07-31T07:03:00;99725.00;;;22.20
22322;BMP180;11328;53.928;18.522;2023-07-31T07:05:27;99727.00;;;22.10
22322;BMP180;11328;53.928;18.522;2023-07-31T07:07:54;99731.00;;;22.00
22322;BMP180;11328;53.928;18.522;2023-07-31T07:10:21;99727.00;;;21.90
22322;BMP180;11328;53.928;18.522;2023-07-31T07:12:48;99741.00;;;22.10
22322;BMP180;11328;53.928;18.522;2023-07-31T07:15:15;99715.00;;;22.40
22322;BMP180;11328;53.928;18.522;2023-07-31T07:17:43;99707.00;;;22.70
22322;BMP180;11328;53.928;18.522;2023-07-31T07:20:10;99711.00;;;23.50
22322;BMP180;11328;53.928;18.522;2023-07-31T07:22:37;99702.00;;;23.90
22322;BMP180;11328;53.928;18.522;2023-07-31T07:25:05;99695.00;;;24.50
22322;BMP180;11328;53.928;18.522;2023-07-31T07:27:34;99695.00;;;24.90
22322;BMP180;11328;53.928;18.522;2023-07-31T07:30:01;99690.00;;;25.30
22322;BMP180;11328;53.928;18.522;2023-07-31T07:32:28;99686.00;;;25.40
22322;BMP180;11328;53.928;18.522;2023-07-31T07:34:56;99684.00;;;25.40
22322;BMP180;11328;53.928;18.522;2023-07-31T07:37:23;99687.00;;;25.40
22322;BMP180;11328;53.928;18.522;2023-07-31T07:39:50;99688.00;;;25.50
22322;BMP180;11328;53.928;18.522;2023-07-31T07:42:18;99712.00;;;25.50
22322;BMP180;11328;53.928;18.522;2023-07-31T07:44:45;99706.00;;;25.00
22322;BMP180;11328;53.928;18.522;2023-07-31T07:47:13;99684.00;;;24.80
22322;BMP180;11328;53.928;18.522;2023-07-31T07:49:40;99693.00;;;24.70
22322;BMP180;11328;53.928;18.522;2023-07-31T07:52:07;99700.00;;;24.70
22322;BMP180;11328;53.928;18.522;2023-07-31T07:54:34;99690.00;;;24.60
22322;BMP180;11328;53.928;18.522;2023-07-31T07:57:01;99698.00;;;25.00
22322;BMP180;11328;53.928;18.522;2023-07-31T07:59:27;99700.00;;;25.30
22322;BMP180;11328;53.928;18.522;2023-07-31T08:01:55;99677.00;;;25.40
22322;BMP180;11328;53.928;18.522;2023-07-31T08:04:21;99696.00;;;25.50
22322;BMP180;11328;53.928;18.522;2023-07-31T08:06:48;99701.00;;;25.80
22322;BMP180;11328;53.928;18.522;2023-07-31T08:09:15;99699.00;;;25.90
22322;BMP180;11328;53.928;18.522;2023-07-31T08:11:42;99702.00;;;25.80
22322;BMP180;11328;53.928;18.522;2023-07-31T08:14:09;99696.00;;;25.60
22322;BMP180;11328;53.928;18.522;2023-07-31T08:16:36;99703.00;;;25.50
22322;BMP180;11328;53.928;18.522;2023-07-31T08:19:04;99691.00;;;25.60
22322;BMP180;11328;53.928;18.522;2023-07-31T08:21:32;99689.00;;;25.70
22322;BMP180;11328;53.928;18.522;2023-07-31T08:23:59;99700.00;;;25.60
22322;BMP180;11328;53.928;18.522;2023-07-31T08:26:26;99703.00;;;25.40
22322;BMP180;11328;53.928;18.522;2023-07-31T08:28:53;99712.00;;;24.70
22322;BMP180;11328;53.928;18.522;2023-07-31T08:31:20;99726.00;;;24.40
22322;BMP180;11328;53.928;18.522;2023-07-31T08:33:47;99717.00;;;24.40
22322;BMP180;11328;53.928;18.522;2023-07-31T08:36:14;99730.00;;;24.60
22322;BMP180;11328;53.928;18.522;2023-07-31T08:38:41;99700.00;;;25.10
22322;BMP180;11328;53.928;18.522;2023-07-31T08:41:08;99695.00;;;25.30
22322;BMP180;11328;53.928;18.522;2023-07-31T08:43:36;99688.00;;;25.50
22322;BMP180;11328;53.928;18.522;2023-07-31T08:46:05;99686.00;;;25.20
22322;BMP180;11328;53.928;18.522;2023-07-31T08:48:32;99698.00;;;24.90
22322;BMP180;11328;53.928;18.522;2023-07-31T08:51:00;99691.00;;;24.80
22322;BMP180;11328;53.928;18.522;2023-07-31T08:53:27;99685.00;;;24.70
22322;BMP180;11328;53.928;18.522;2023-07-31T08:55:56;99695.00;;;24.70
22322;BMP180;11328;53.928;18.522;2023-07-31T08:58:27;99703.00;;;24.50
22322;BMP180;11328;53.928;18.522;2023-07-31T09:00:59;99698.00;;;24.60
22322;BMP180;11328;53.928;18.522;2023-07-31T09:03:28;99690.00;;;24.50
22322;BMP180;11328;53.928;18.522;2023-07-31T09:05:58;99694.00;;;24.00
22322;BMP180;11328;53.928;18.522;2023-07-31T09:08:31;99697.00;;;24.00
22322;BMP180;11328;53.928;18.522;2023-07-31T09:11:02;99695.00;;;24.00
22322;BMP180;11328;53.928;18.522;2023-07-31T09:13:32;99679.00;;;24.20
22322;BMP180;11328;53.928;18.522;2023-07-31T09:16:00;99676.00;;;24.40
22322;BMP180;11328;53.928;18.522;2023-07-31T09:18:27;99691.00;;;24.50
22322;BMP180;11328;53.928;18.522;2023-07-31T09:21:06;99678.00;;;24.10
22322;BMP180;11328;53.928;18.522;2023-07-31T09:23:44;99675.00;;;23.90
22322;BMP180;11328;53.928;18.522;2023-07-31T09:26:29;99678.00;;;23.40
22322;BMP180;11328;53.928;18.522;2023-07-31T09:28:58;99676.00;;;23.60
22322;BMP180;11328;53.928;18.522;2023-07-31T09:31:42;99666.00;;;23.50
22322;BMP180;11328;53.928;18.522;2023-07-31T09:34:10;99661.00;;;23.70
22322;BMP180;11328;53.928;18.522;2023-07-31T09:36:45;99668.00;;;24.30
22322;BMP180;11328;53.928;18.522;2023-07-31T09:39:15;99632.00;;;24.70
22322;BMP180;11328;53.928;18.522;2023-07-31T09:41:53;99655.00;;;25.10
22322;BMP180;11328;53.928;18.522;2023-07-31T09:44:20;99671.00;;;25.60
22322;BMP180;11328;53.928;18.522;2023-07-31T09:46:47;99663.00;;;26.10
22322;BMP180;11328;53.928;18.522;2023-07-31T09:49:15;99665.00;;;26.00
22322;BMP180;11328;53.928;18.522;2023-07-31T09:51:42;99670.00;;;25.60
22322;BMP180;11328;53.928;18.522;2023-07-31T09:54:14;99664.00;;;25.20
22322;BMP180;11328;53.928;18.522;2023-07-31T09:56:48;99672.00;;;25.20
22322;BMP180;11328;53.928;18.522;2023-07-31T09:59:20;99661.00;;;25.20
22322;BMP180;11328;53.928;18.522;2023-07-31T10:01:50;99668.00;;;25.20
22322;BMP180;11328;53.928;18.522;2023-07-31T10:04:28;99663.00;;;25.10
22322;BMP180;11328;53.928;18.522;2023-07-31T10:06:59;99665.00;;;24.80
22322;BMP180;11328;53.928;18.522;2023-07-31T10:09:31;99672.00;;;24.70
22322;BMP180;11328;53.928;18.522;2023-07-31T10:12:02;99663.00;;;24.70
22322;BMP180;11328;53.928;18.522;2023-07-31T10:14:36;99651.00;;;24.90
22322;BMP180;11328;53.928;18.522;2023-07-31T10:17:05;99664.00;;;24.60
22322;BMP180;11328;53.928;18.522;2023-07-31T10:19:35;99647.00;;;24.60
22322;BMP180;11328;53.928;18.522;2023-07-31T10:22:04;99658.00;;;24.60
22322;BMP180;11328;53.928;18.522;2023-07-31T10:24:32;99659.00;;;24.30
22322;BMP180;11328;53.928;18.522;2023-07-31T10:27:01;99648.00;;;24.10
22322;BMP180;11328;53.928;18.522;2023-07-31T10:29:30;99650.00;;;24.00
22322;BMP180;11328;53.928;18.522;2023-07-31T10:31:59;99653.00;;;24.30
22322;BMP180;11328;53.928;18.522;2023-07-31T10:34:26;99640.00;;;24.50
22322;BMP180;11328;53.928;18.522;2023-07-31T10:40:03;99632.00;;;25.40
22322;BMP180;11328;53.928;18.522;2023-07-31T10:45:07;99647.00;;;25.30
22322;BMP180;11328;53.928;18.522;2023-07-31T10:47:44;99655.00;;;25.30
22322;BMP180;11328;53.928;18.522;2023-07-31T10:50:23;99660.00;;;25.30
22322;BMP180;11328;53.928;18.522;2023-07-31T10:52:55;99653.00;;;25.20
22322;BMP180;11328;53.928;18.522;2023-07-31T10:55:39;99657.00;;;25.10
22322;BMP180;11328;53.928;18.522;2023-07-31T10:58:13;99660.00;;;25.10
22322;BMP180;11328;53.928;18.522;2023-07-31T11:00:43;99661.00;;;24.90
22322;BMP180;11328;53.928;18.522;2023-07-31T11:03:13;99655.00;;;24.90
22322;BMP180;11328;53.928;18.522;2023-07-31T11:05:50;99656.00;;;24.80
22322;BMP180;11328;53.928;18.522;2023-07-31T11:08:25;99651.00;;;24.80
22322;BMP180;11328;53.928;18.522;2023-07-31T11:13:39;99635.00;;;24.80
22322;BMP180;11328;53.928;18.522;2023-07-31T11:16:07;99647.00;;;24.60
22322;BMP180;11328;53.928;18.522;2023-07-31T11:18:35;99643.00;;;24.60
22322;BMP180;11328;53.928;18.522;2023-07-31T11:21:04;99648.00;;;24.50
22322;BMP180;11328;53.928;18.522;2023-07-31T11:23:31;99631.00;;;24.40
22322;BMP180;11328;53.928;18.522;2023-07-31T11:26:00;99647.00;;;24.60
22322;BMP180;11328;53.928;18.522;2023-07-31T11:28:33;99642.00;;;24.70
22322;BMP180;11328;53.928;18.522;2023-07-31T11:31:02;99637.00;;;24.50
22322;BMP180;11328;53.928;18.522;2023-07-31T11:33:29;99641.00;;;24.50
22322;BMP180;11328;53.928;18.522;2023-07-31T11:35:57;99644.00;;;24.50
22322;BMP180;11328;53.928;18.522;2023-07-31T11:38:33;99653.00;;;24.30
22322;BMP180;11328;53.928;18.522;2023-07-31T11:41:03;99644.00;;;23.90
22322;BMP180;11328;53.928;18.522;2023-07-31T11:43:33;99646.00;;;23.60
22322;BMP180;11328;53.928;18.522;2023-07-31T11:46:03;99647.00;;;23.60
22322;BMP180;11328;53.928;18.522;2023-07-31T11:48:33;99641.00;;;23.60
22322;BMP180;11328;53.928;18.522;2023-07-31T11:51:09;99650.00;;;23.60
22322;BMP180;11328;53.928;18.522;2023-07-31T11:53:45;99641.00;;;23.80
22322;BMP180;11328;53.928;18.522;2023-07-31T11:56:16;99637.00;;;23.90
22322;BMP180;11328;53.928;18.522;2023-07-31T11:58:47;99617.00;;;23.90
22322;BMP180;11328;53.928;18.522;2023-07-31T12:01:18;99639.00;;;23.80
22322;BMP180;11328;53.928;18.522;2023-07-31T12:03:47;99631.00;;;23.80
22322;BMP180;11328;53.928;18.522;2023-07-31T12:06:14;99621.00;;;24.10
22322;BMP180;11328;53.928;18.522;2023-07-31T12:08:41;99627.00;;;24.50
22322;BMP180;11328;53.928;18.522;2023-07-31T12:11:09;99621.00;;;24.80
22322;BMP180;11328;53.928;18.522;2023-07-31T12:13:36;99608.00;;;24.90
22322;BMP180;11328;53.928;18.522;2023-07-31T12:16:04;99609.00;;;24.80
22322;BMP180;11328;53.928;18.522;2023-07-31T12:18:37;99604.00;;;24.80
22322;BMP180;11328;53.928;18.522;2023-07-31T12:21:08;99603.00;;;24.80
22322;BMP180;11328;53.928;18.522;2023-07-31T12:23:37;99594.00;;;24.80
22322;BMP180;11328;53.928;18.522;2023-07-31T12:26:15;99585.00;;;24.80
22322;BMP180;11328;53.928;18.522;2023-07-31T12:31:15;99586.00;;;24.70
22322;BMP180;11328;53.928;18.522;2023-07-31T12:33:47;99592.00;;;24.70
22322;BMP180;11328;53.928;18.522;2023-07-31T12:36:27;99595.00;;;24.60
22322;BMP180;11328;53.928;18.522;2023-07-31T12:38:55;99585.00;;;24.60
22322;BMP180;11328;53.928;18.522;2023-07-31T12:41:24;99580.00;;;24.80
22322;BMP180;11328;53.928;18.522;2023-07-31T12:43:51;99582.00;;;24.80
22322;BMP180;11328;53.928;18.522;2023-07-31T12:46:18;99581.00;;;24.90
22322;BMP180;11328;53.928;18.522;2023-07-31T12:48:45;99582.00;;;24.80
22322;BMP180;11328;53.928;18.522;2023-07-31T12:51:12;99585.00;;;24.70
22322;BMP180;11328;53.928;18.522;2023-07-31T12:53:39;99573.00;;;24.60
22322;BMP180;11328;53.928;18.522;2023-07-31T12:56:06;99583.00;;;24.50
22322;BMP180;11328;53.928;18.522;2023-07-31T12:58:33;99574.00;;;24.50
22322;BMP180;11328;53.928;18.522;2023-07-31T13:01:00;99571.00;;;24.40
22322;BMP180;11328;53.928;18.522;2023-07-31T13:03:29;99575.00;;;24.30
22322;BMP180;11328;53.928;18.522;2023-07-31T13:05:56;99576.00;;;24.20
22322;BMP180;11328;53.928;18.522;2023-07-31T13:08:22;99577.00;;;24.00
22322;BMP180;11328;53.928;18.522;2023-07-31T13:10:49;99595.00;;;23.80
22322;BMP180;11328;53.928;18.522;2023-07-31T13:13:16;99603.00;;;23.60
22322;BMP180;11328;53.928;18.522;2023-07-31T13:15:44;99605.00;;;23.30
22322;BMP180;11328;53.928;18.522;2023-07-31T13:18:12;99609.00;;;23.00
22322;BMP180;11328;53.928;18.522;2023-07-31T13:20:38;99610.00;;;22.70
22322;BMP180;11328;53.928;18.522;2023-07-31T13:23:05;99602.00;;;22.40
22322;BMP180;11328;53.928;18.522;2023-07-31T13:25:32;99606.00;;;22.20
22322;BMP180;11328;53.928;18.522;2023-07-31T13:27:59;99589.00;;;22.00
22322;BMP180;11328;53.928;18.522;2023-07-31T13:30:30;99574.00;;;21.90
22322;BMP180;11328;53.928;18.522;2023-07-31T13:32:57;99578.00;;;22.10
22322;BMP180;11328;53.928;18.522;2023-07-31T13:35:24;99576.00;;;22.10
22322;BMP180;11328;53.928;18.522;2023-07-31T13:37:51;99566.00;;;22.10
22322;BMP180;11328;53.928;18.522;2023-07-31T13:40:18;99575.00;;;22.00
22322;BMP180;11328;53.928;18.522;2023-07-31T13:42:45;99563.00;;;21.80
22322;BMP180;11328;53.928;18.522;2023-07-31T13:45:14;99560.00;;;22.00
22322;BMP180;11328;53.928;18.522;2023-07-31T13:47:41;99554.00;;;22.10
22322;BMP180;11328;53.928;18.522;2023-07-31T13:50:09;99557.00;;;22.00
22322;BMP180;11328;53.928;18.522;2023-07-31T13:52:36;99554.00;;;22.00
22322;BMP180;11328;53.928;18.522;2023-07-31T13:55:03;99563.00;;;21.70
22322;BMP180;11328;53.928;18.522;2023-07-31T13:57:30;99553.00;;;21.60
22322;BMP180;11328;53.928;18.522;2023-07-31T13:59:57;99542.00;;;21.40
22322;BMP180;11328;53.928;18.522;2023-07-31T14:02:24;99543.00;;;21.60
22322;BMP180;11328;53.928;18.522;2023-07-31T14:04:51;99536.00;;;21.80
22322;BMP180;11328;53.928;18.522;2023-07-31T14:07:18;99539.00;;;21.80
22322;BMP180;11328;53.928;18.522;2023-07-31T14:09:45;99526.00;;;21.90
22322;BMP180;11328;53.928;18.522;2023-07-31T14:12:12;99525.00;;;22.00
22322;BMP180;11328;53.928;18.522;2023-07-31T14:14:50;99527.00;;;22.20